AirNav   Everest Fuels
 
 1408 users online  

KNFJ Choctaw Naval Outlying Field
Milton, Florida, USA

GOING TO MILTON?


FAA INFORMATION EFFECTIVE 01 DECEMBER 2022

Location

FAA Identifier: NFJ
Lat/Long: 30-30-25.0000N 086-57-35.0000W
30-30.416667N 086-57.583333W
30.5069444,-86.9597222
(estimated)
Elevation: 102 ft. / 31 m (estimated)
Variation: 02W (2010)
Time zone: UTC -6 (UTC -5 during Daylight Saving Time)
Zip code: 32566

Airport Operations

Airport use: Private use. Permission required prior to landing
Control tower: yes
ARTCC: JACKSONVILLE CENTER
FSS: GAINESVILLE FLIGHT SERVICE STATION
Attendance: MON-FRI 1330-2330Z++, ALL HOLS CLSD, ALL SAT-SUN CLSD
Segmented circle: no
Lights: AVBL ONLY DURING HRS OF OPERATION.
Beacon: white-green (lighted land airport)
Operates sunset to sunrise.

Airport Communications

ATIS: 290.55
CHOCTAW TOWER: 121.4 259.25 [OPR 1330-2330Z++MON-FRI, CLSD SAT, SUN, AND HOL.]
PENSACOLA APPROACH: 119.0 ;340-159
PENSACOLA DEPARTURE: 119.0 ;340-159
CLASS C: 119.0 ;340-159
IC: 119.0 ;340-159
WX ASOS at NDZ (12 nm N): PHONE 850-623-7210
WX ASOS at PNS (12 nm W): 121.25 (850-436-4799)
WX ASOS at NSE (13 nm N): PHONE 850-623-7241

Nearby radio navigation aids

VOR radial/distance  VOR name  Freq  Var
NUNr083/(19.6)SAUFLEY VOR112.2501E
CEWr214/24.0CRESTVIEW VORTAC115.9003E

Airport Services

Runway Information

Runway 18/36

Dimensions: 8000 x 150 ft. / 2438 x 46 m
Surface: asphalt
Weight bearing capacity: 
PCN 37 /F/B/W/T
Runway edge lights: high intensity
RUNWAY 18  RUNWAY 36
Traffic pattern: leftleft

Airport Ownership and Management from official FAA records

Ownership: U.S. Navy
Owner: US NAVY
COMTRAWING 6
NAS PENSACOLA, FL 32508
Manager: COMMANDING OFFICER
OPERATIONS DEPARTMENT, 7077 USS LEXINGTON COURT
MILTON, FL 32570-6155
Phone 850-623-7755
OR 850-623-7372

Additional Remarks

FOR FLIGHT ADVISORIES CTC WHITING FIELD NAS BASE OPS DSN 868-7597 C850-623-7597. CRASH CREWS AVBL DURING OPR HRS.
RY LIGHTING MUST BE REQUESTED DURG OPNL HRS.
RSTD: MIL USE ONLY.
MISC: CTL AGENCY NAS WHITING FLD, DSN 868-7475, C850-623-7475. TWR AND CRASH CREW PERS ON STN DUR OPR HR. UNLGTD COPTER PAD ON TWY S OF CTL TWR.
RSTD: TRAWING 5 AND 6 ACFT ONLY. PPR FOR ALL OTHER ACFT. CLSD FLD OPS PROH EXC LO APCH.
FOR CD CTC PENSACOLA APCH AT 850-266-6884 OR 850-266-6885.

Instrument Procedures

There are no published instrument procedures at KNFJ.

Some nearby airports with instrument procedures:

2R4 - Peter Prince Field Airport (8 nm N)
KNDZ - Whiting Field Naval Air Station South (12 nm N)
KPNS - Pensacola International Airport (12 nm W)
KNSE - Whiting Field Naval Air Station North (13 nm N)
KHRT - Hurlburt Field Airport (15 nm E)
 
Loc | Ops | Rwys | IFR | FBO | Links
Com | Nav | Svcs | Stats | Notes
Area around KNFJ (Choctaw Naval Outlying Field)
 
Road maps at: MapQuest Bing Google
 
Aerial photo
No photo
 
Sectional chart

 
Airport distance calculator
Flying to Choctaw Naval Outlying Field? Find the distance to fly.

From to KNFJ

Sunrise and sunset
Times for 09-Dec-2022
 Local
(UTC-6)
 Zulu
(UTC)
Morning civil twilight06:0812:08
Sunrise06:3412:34
Sunset16:4622:46
Evening civil twilight17:1223:12

Current date and time
Zulu (UTC)  09-Dec-2022 15:58:42
Local (UTC-6)  09-Dec-2022 09:58:42
 
METAR
KPNS 
12nm W 
091553Z 30004KT 8SM OVC006 19/18 A3019 RMK AO2 SLP226 T01940178
KNDZ 
12nm N 
091456Z 00000KT 1/4SM FG VV000 17/17 A3020 RMK SLP212 T01670167 51017
KNSE 
13nm N 
091543Z 30003KT 3SM BR OVC002 17/17 A3020 RMK T01720172
KHRT 
16nm E 
091550Z 33003KT 10SM OVC005 19/17 A3019 RMK AO2A SLP225 $
TAF
KPNS 
12nm W 
091359Z 0914/1012 30005KT 2SM BR OVC003 FM091600 29004KT P6SM OVC009 FM091800 28004KT P6SM SCT020 FM100500 VRB03KT 1/4SM FG SCT003 FM100700 VRB03KT 1/4SM FG VV002
KNSE 
13nm N 
0907/1007 VRB05KT 0800 FG VV002 QNH3009INS BECMG 0914/0916 VRB05KT 9999 BKN010 QNH3018INS BECMG 0920/0922 28006KT 9999 SCT015 SCT050 QNH3015INS AUTOMATED SENSOR METWATCH 0907 TIL 0912 T14/0912Z T25/0918Z FN00248
KHRT 
16nm E 
091008Z 0910/1016 28006KT 3200 FG OVC003 QNH3012INS BECMG 0910/0911 28006KT 0800 FG OVC002 QNH3012INS TEMPO 0911/0913 0600 FG VV001 BECMG 0912/0913 28006KT 1600 BR SCT001 QNH3014INS BECMG 0913/0914 18006KT 0800 FG BKN002 QNH3015INS TEMPO 0914/0916 0400 FG BKN001 BECMG 0916/0917 28006KT 9999 NSW SCT020 QNH3009INS BECMG 1004/1005 29006KT 9999 BKN005 QNH3009INS BECMG 1010/1011 18006KT 0800 FG BKN001 QNH3016INS TX24/0919Z TN15/0912Z
NOTAMs
Click for the latest NOTAMs
NOTAMs are issued by the DoD/FAA and will open in a separate window not controlled by AirNav.

 

 
 

Would you like to see your business listed on this page?

 If your business provides an interesting product or service to pilots, flight crews, aircraft, or users of the Choctaw Naval Outlying Field, you should consider listing it here.  To start the listing process, click on the button below
 
Add a business
 

Other Pages about Choctaw Naval Outlying Field

Update a link
 
Copyright © AirNav, LLC. All rights reserved. Privacy Policy  Contact